Time;durP1;ratioP1;P1;durP2;ratioP2;P2;SDS_P1;SDS_P2;PMS_P1;PMS_P2;Temp;Humidity;BMP_temperature;BMP_pressure;BME280_temperature;BME280_humidity;BME280_pressure;Samples;Min_cycle;Max_cycle;Signal;HPM_P1;HPM_P2
2022/03/25 00:00:24;;;;;;;98.88;58.78;;;6.30;99.90;;;;;;5055958;28;20476;-72
2022/03/25 00:02:50;;;;;;;107.38;60.03;;;6.30;99.90;;;;;;5073878;28;20418;-72
2022/03/25 00:05:16;;;;;;;108.80;61.70;;;6.30;99.90;;;;;;5072356;28;20045;-72
2022/03/25 00:07:41;;;;;;;103.75;60.25;;;6.30;99.90;;;;;;5072279;28;20114;-72
2022/03/25 00:10:07;;;;;;;115.90;66.03;;;6.30;99.90;;;;;;5072297;28;20052;-72
2022/03/25 00:12:33;;;;;;;105.32;61.80;;;6.30;99.90;;;;;;5072428;28;20063;-72
2022/03/25 00:14:59;;;;;;;109.75;61.58;;;6.20;99.90;;;;;;5072298;28;20041;-71
2022/03/25 00:17:24;;;;;;;105.00;57.55;;;6.30;99.90;;;;;;5071905;28;20049;-72
2022/03/25 00:19:51;;;;;;;109.95;60.85;;;6.40;99.90;;;;;;5072302;28;20043;-72
2022/03/25 00:22:16;;;;;;;106.55;59.80;;;6.40;99.90;;;;;;5072256;28;20032;-72
2022/03/25 00:24:42;;;;;;;105.47;61.05;;;6.40;99.90;;;;;;5073327;28;20039;-72
2022/03/25 00:27:09;;;;;;;112.40;64.32;;;6.30;99.90;;;;;;5055371;28;20379;-71
2022/03/25 00:29:34;;;;;;;110.10;64.38;;;6.20;99.90;;;;;;5072344;28;20072;-72
2022/03/25 00:32:00;;;;;;;103.50;61.00;;;6.20;99.90;;;;;;5072086;28;20036;-72
2022/03/25 00:34:26;;;;;;;110.57;63.22;;;6.20;99.90;;;;;;5071985;28;20052;-72
2022/03/25 00:36:51;;;;;;;104.07;61.85;;;6.30;99.90;;;;;;5071576;28;20037;-72
2022/03/25 00:39:17;;;;;;;114.25;63.13;;;6.20;99.90;;;;;;5071721;28;20098;-72
2022/03/25 00:41:44;;;;;;;111.65;63.65;;;6.00;99.90;;;;;;5055045;28;20090;-72
2022/03/25 00:44:10;;;;;;;115.28;64.10;;;5.90;99.90;;;;;;5055396;28;20402;-72
2022/03/25 00:46:36;;;;;;;109.03;62.05;;;5.80;99.90;;;;;;5071399;28;20094;-72
2022/03/25 00:49:04;;;;;;;113.03;64.07;;;5.90;99.90;;;;;;5071690;28;20036;-72
2022/03/25 00:51:30;;;;;;;110.18;62.80;;;5.90;99.90;;;;;;5071644;28;20502;-72
2022/03/25 00:53:55;;;;;;;104.88;59.97;;;5.90;99.90;;;;;;5054795;28;20066;-72
2022/03/25 00:56:21;;;;;;;102.10;59.65;;;5.90;99.90;;;;;;5071081;28;20081;-72
2022/03/25 00:58:47;;;;;;;107.85;60.05;;;5.80;99.90;;;;;;5071515;28;20037;-72
2022/03/25 01:01:15;;;;;;;105.05;57.80;;;5.80;99.90;;;;;;5071410;28;20405;-72
2022/03/25 01:03:40;;;;;;;104.85;58.47;;;5.80;99.90;;;;;;5054837;28;20121;-72
2022/03/25 01:06:06;;;;;;;94.72;55.28;;;5.70;99.90;;;;;;5070967;28;20075;-72
2022/03/25 01:08:31;;;;;;;96.25;57.40;;;5.70;99.90;;;;;;5071188;28;20040;-72
2022/03/25 01:10:57;;;;;;;100.40;58.47;;;5.60;99.90;;;;;;5071272;28;20051;-71
2022/03/25 01:13:23;;;;;;;105.47;59.05;;;5.60;99.90;;;;;;5071444;28;20452;-71
2022/03/25 01:15:49;;;;;;;102.40;59.17;;;5.60;99.90;;;;;;5070618;28;20036;-71
2022/03/25 01:18:14;;;;;;;97.18;56.05;;;5.60;99.90;;;;;;5071454;28;20071;-72
2022/03/25 01:20:41;;;;;;;100.65;58.15;;;5.70;99.90;;;;;;5071061;28;20036;-71
2022/03/25 01:23:06;;;;;;;96.93;56.88;;;5.70;99.90;;;;;;5070961;28;20071;-72
2022/03/25 01:25:32;;;;;;;99.88;57.63;;;5.80;99.90;;;;;;5070640;28;20040;-72
2022/03/25 01:27:58;;;;;;;103.55;58.80;;;5.60;99.90;;;;;;5070989;28;20460;-72
2022/03/25 01:30:24;;;;;;;101.70;57.38;;;5.50;99.90;;;;;;5054580;28;20481;-71
2022/03/25 01:32:50;;;;;;;96.90;55.72;;;5.60;99.90;;;;;;5054243;28;20040;-72
2022/03/25 01:35:22;;;;;;;91.70;52.33;;;5.60;99.90;;;;;;5070657;28;20055;-72
2022/03/25 01:37:47;;;;;;;97.28;54.67;;;5.50;99.90;;;;;;5070752;28;20106;-72
2022/03/25 01:40:13;;;;;;;102.32;55.72;;;5.30;99.90;;;;;;5071305;28;20044;-71
2022/03/25 01:42:41;;;;;;;95.38;55.17;;;5.40;99.90;;;;;;5070704;28;20075;-71
2022/03/25 01:45:09;;;;;;;101.60;57.88;;;5.40;99.90;;;;;;5054234;28;20040;-72
2022/03/25 01:47:35;;;;;;;100.72;56.58;;;5.40;99.90;;;;;;5070364;28;20506;-72
2022/03/25 01:50:02;;;;;;;94.75;55.20;;;5.30;99.90;;;;;;5070603;28;20044;-71
2022/03/25 01:52:28;;;;;;;94.53;53.20;;;5.30;99.90;;;;;;5070827;28;20084;-71
2022/03/25 01:54:54;;;;;;;100.88;57.38;;;5.40;99.90;;;;;;5069987;28;20083;-72
2022/03/25 01:57:25;;;;;;;93.28;54.08;;;5.30;99.90;;;;;;5070468;28;20041;-71
2022/03/25 01:59:54;;;;;;;97.63;56.90;;;5.30;99.90;;;;;;5070847;28;20044;-71
2022/03/25 02:02:19;;;;;;;103.53;58.70;;;5.20;99.90;;;;;;5070505;28;20498;-72
2022/03/25 02:04:45;;;;;;;98.07;54.78;;;5.20;99.90;;;;;;5054023;28;20049;-72
2022/03/25 02:07:11;;;;;;;94.03;55.88;;;5.30;99.90;;;;;;5070008;28;20486;-72
2022/03/25 02:09:36;;;;;;;99.28;53.13;;;5.30;99.90;;;;;;5070417;28;20044;-72
2022/03/25 02:12:03;;;;;;;98.63;54.15;;;5.30;99.90;;;;;;5070737;28;20037;-72
2022/03/25 02:14:29;;;;;;;98.03;53.83;;;5.20;99.90;;;;;;5070407;28;20048;-72
2022/03/25 02:16:55;;;;;;;94.55;54.33;;;5.20;99.90;;;;;;5053080;28;20044;-71
2022/03/25 02:19:24;;;;;;;92.88;52.35;;;5.20;99.90;;;;;;5053584;28;20041;-71
2022/03/25 02:21:51;;;;;;;87.03;51.58;;;5.30;99.90;;;;;;5070235;28;20043;-72
2022/03/25 02:24:17;;;;;;;91.90;52.95;;;5.20;99.90;;;;;;5070526;28;20036;-72
2022/03/25 02:26:44;;;;;;;100.63;55.10;;;5.30;99.90;;;;;;5069828;28;20093;-71
2022/03/25 02:29:13;;;;;;;88.75;51.20;;;5.10;99.90;;;;;;5070272;28;20043;-71
2022/03/25 02:31:39;;;;;;;97.05;54.13;;;5.10;99.90;;;;;;5070438;28;20040;-72
2022/03/25 02:34:08;;;;;;;102.25;52.85;;;5.10;99.90;;;;;;5070138;28;20036;-72
2022/03/25 02:36:40;;;;;;;86.32;49.63;;;5.00;99.90;;;;;;5069806;28;20448;-71
2022/03/25 02:39:07;;;;;;;95.00;51.42;;;5.00;99.90;;;;;;5070401;28;20371;-72
2022/03/25 02:41:33;;;;;;;87.53;51.20;;;5.00;99.90;;;;;;5053377;28;20173;-71
2022/03/25 02:44:01;;;;;;;92.13;51.80;;;5.00;99.90;;;;;;5053463;28;20123;-72
2022/03/25 02:46:27;;;;;;;93.43;50.30;;;5.10;99.90;;;;;;5069613;28;20043;-71
2022/03/25 02:48:53;;;;;;;84.60;49.85;;;5.10;99.90;;;;;;5070057;28;20040;-71
2022/03/25 02:51:19;;;;;;;87.63;51.20;;;5.10;99.90;;;;;;5071370;28;20044;-72
2022/03/25 02:53:44;;;;;;;87.95;49.95;;;5.20;99.90;;;;;;5069990;28;20040;-71
2022/03/25 02:56:10;;;;;;;85.53;49.80;;;5.20;99.90;;;;;;5069511;28;20045;-72
2022/03/25 02:58:37;;;;;;;88.28;48.35;;;5.20;99.90;;;;;;5069989;28;20040;-72
2022/03/25 03:01:03;;;;;;;88.32;52.22;;;5.10;99.90;;;;;;5070184;28;20037;-71
2022/03/25 03:03:29;;;;;;;91.75;52.47;;;5.10;99.90;;;;;;5069959;28;20052;-71
2022/03/25 03:05:54;;;;;;;84.03;49.92;;;5.20;99.90;;;;;;5070041;28;20052;-72
2022/03/25 03:08:20;;;;;;;88.47;51.70;;;5.10;99.90;;;;;;5073671;28;20042;-72
2022/03/25 03:10:46;;;;;;;89.35;49.10;;;5.10;99.90;;;;;;5073876;28;20040;-72
2022/03/25 03:13:13;;;;;;;82.78;50.08;;;5.10;99.90;;;;;;5073530;28;20090;-71
2022/03/25 03:15:39;;;;;;;88.82;50.97;;;5.10;99.90;;;;;;5073040;28;20452;-72
2022/03/25 03:18:06;;;;;;;84.97;47.85;;;5.10;99.90;;;;;;5073576;28;20041;-71
2022/03/25 03:20:31;;;;;;;85.90;49.10;;;5.00;99.90;;;;;;5057074;28;20126;-71
2022/03/25 03:22:58;;;;;;;87.22;49.13;;;5.00;99.90;;;;;;5073696;28;20040;-71
2022/03/25 03:25:26;;;;;;;86.68;48.88;;;5.00;99.90;;;;;;5073030;28;20119;-72
2022/03/25 03:27:52;;;;;;;87.78;48.67;;;5.00;99.90;;;;;;5073395;28;20111;-71
2022/03/25 03:30:18;;;;;;;87.35;49.83;;;4.90;99.90;;;;;;5073268;28;20498;-71
2022/03/25 03:32:43;;;;;;;94.05;50.00;;;4.90;99.90;;;;;;5073227;28;20093;-71
2022/03/25 03:35:09;;;;;;;92.30;52.95;;;4.90;99.90;;;;;;5073017;28;20166;-71
2022/03/25 03:37:43;;;;;;;91.20;51.30;;;4.90;99.90;;;;;;5073115;28;20410;-71
2022/03/25 03:40:10;;;;;;;89.88;50.80;;;4.90;99.90;;;;;;5073134;28;20038;-71
2022/03/25 03:42:37;;;;;;;88.93;51.70;;;4.90;99.90;;;;;;5072882;28;20036;-71
2022/03/25 03:45:04;;;;;;;93.00;51.20;;;4.90;99.90;;;;;;5073053;28;20040;-72
2022/03/25 03:47:29;;;;;;;92.53;51.22;;;4.90;99.90;;;;;;5072650;28;20056;-71
2022/03/25 03:49:55;;;;;;;96.35;52.28;;;4.90;99.90;;;;;;5072887;28;20044;-72
2022/03/25 03:52:21;;;;;;;95.38;51.53;;;4.90;99.90;;;;;;5072857;28;20414;-71
2022/03/25 03:54:46;;;;;;;89.55;50.92;;;4.80;99.90;;;;;;5072718;28;20076;-71
2022/03/25 03:57:12;;;;;;;91.40;51.35;;;4.80;99.90;;;;;;5072629;28;20565;-71
2022/03/25 03:59:37;;;;;;;91.65;50.65;;;4.80;99.90;;;;;;5072980;28;20506;-71
2022/03/25 04:02:03;;;;;;;92.80;50.78;;;4.80;99.90;;;;;;5072700;28;20072;-72
2022/03/25 04:04:29;;;;;;;93.28;49.35;;;4.80;99.90;;;;;;5072601;28;20046;-71
2022/03/25 04:06:54;;;;;;;82.07;48.42;;;4.80;99.90;;;;;;5072210;28;20066;-71
2022/03/25 04:09:20;;;;;;;86.85;49.45;;;4.80;99.90;;;;;;5072913;28;20090;-72
2022/03/25 04:11:46;;;;;;;88.25;48.20;;;4.80;99.90;;;;;;5072444;28;20097;-71
2022/03/25 04:14:11;;;;;;;87.95;48.25;;;4.80;99.90;;;;;;5072509;28;20048;-71
2022/03/25 04:16:37;;;;;;;86.90;46.83;;;4.80;99.90;;;;;;5099157;22;20382;-67
2022/03/25 04:19:03;;;;;;;85.40;46.33;;;4.70;99.90;;;;;;5093894;28;20047;-67
2022/03/25 04:21:28;;;;;;;83.50;46.92;;;4.70;99.90;;;;;;5093923;28;20036;-67
2022/03/25 04:23:54;;;;;;;87.18;47.13;;;4.70;99.90;;;;;;5093821;28;20032;-67
2022/03/25 04:26:20;;;;;;;86.47;46.25;;;4.70;99.90;;;;;;5093368;28;20036;-67
2022/03/25 04:28:45;;;;;;;82.05;46.33;;;4.70;99.90;;;;;;5092591;28;20150;-67
2022/03/25 04:31:11;;;;;;;88.43;48.35;;;4.60;99.90;;;;;;5093301;28;20047;-67
2022/03/25 04:33:37;;;;;;;77.55;45.25;;;4.60;99.90;;;;;;5093670;28;20044;-67
2022/03/25 04:36:03;;;;;;;79.43;45.67;;;4.60;99.90;;;;;;5093170;28;20036;-67
2022/03/25 04:38:29;;;;;;;80.80;45.30;;;4.60;99.90;;;;;;5093415;28;20089;-67
2022/03/25 04:40:55;;;;;;;78.55;44.28;;;4.60;99.90;;;;;;5093512;28;20032;-67
2022/03/25 04:43:21;;;;;;;81.65;45.28;;;4.60;99.90;;;;;;5093330;28;20064;-67
2022/03/25 04:45:46;;;;;;;79.38;44.88;;;4.60;99.90;;;;;;5093236;28;20039;-67
2022/03/25 04:48:12;;;;;;;80.65;44.25;;;4.60;99.90;;;;;;5093305;28;20044;-67
2022/03/25 04:50:39;;;;;;;75.63;43.00;;;4.60;99.90;;;;;;5093904;28;20044;-67
2022/03/25 04:53:05;;;;;;;82.60;46.63;;;4.70;99.90;;;;;;5093572;28;20051;-68
2022/03/25 04:55:31;;;;;;;72.53;42.83;;;4.60;99.90;;;;;;5093009;28;20039;-67
2022/03/25 04:57:57;;;;;;;76.55;44.42;;;4.60;99.90;;;;;;5093131;28;20036;-68
2022/03/25 05:00:22;;;;;;;80.18;43.20;;;4.60;99.90;;;;;;5093216;28;20032;-68
2022/03/25 05:02:48;;;;;;;74.72;41.75;;;4.60;99.90;;;;;;5093376;28;20028;-67
2022/03/25 05:05:15;;;;;;;73.15;43.72;;;4.60;99.90;;;;;;5091899;28;20039;-68
2022/03/25 05:07:45;;;;;;;73.63;41.90;;;4.50;99.90;;;;;;5092911;28;20050;-68
2022/03/25 05:10:13;;;;;;;71.38;40.85;;;4.50;99.90;;;;;;5092149;28;20134;-68
2022/03/25 05:12:43;;;;;;;77.70;40.40;;;4.50;99.90;;;;;;5092923;28;20052;-67
2022/03/25 05:15:10;;;;;;;76.25;41.97;;;4.40;99.90;;;;;;5091824;28;20035;-68
2022/03/25 05:17:44;;;;;;;68.57;41.78;;;4.50;99.90;;;;;;5092489;28;20052;-68
2022/03/25 05:20:10;;;;;;;70.88;41.75;;;4.50;99.90;;;;;;5092788;28;20036;-68
2022/03/25 05:22:35;;;;;;;69.15;39.95;;;4.50;99.90;;;;;;5092733;28;20044;-68
2022/03/25 05:25:06;;;;;;;72.82;39.47;;;4.50;99.90;;;;;;5092429;28;20046;-68
2022/03/25 05:27:41;;;;;;;69.45;38.78;;;4.40;99.90;;;;;;5092293;28;20093;-68
2022/03/25 05:30:07;;;;;;;71.72;40.20;;;4.50;99.90;;;;;;5090459;28;20040;-68
2022/03/25 05:32:32;;;;;;;71.07;41.45;;;4.50;99.90;;;;;;5091146;28;20119;-68
2022/03/25 05:34:58;;;;;;;74.00;40.47;;;4.50;99.90;;;;;;5092426;28;20071;-67
2022/03/25 05:37:24;;;;;;;68.03;41.58;;;4.50;99.90;;;;;;5090814;28;20432;-68
2022/03/25 05:39:50;;;;;;;69.70;39.42;;;4.50;99.90;;;;;;5092350;28;20508;-68
2022/03/25 05:42:16;;;;;;;67.80;39.60;;;4.50;99.90;;;;;;5092502;28;20044;-68
2022/03/25 05:44:42;;;;;;;68.80;39.50;;;4.50;99.90;;;;;;5092396;28;20051;-68
2022/03/25 05:47:07;;;;;;;65.18;38.47;;;4.50;99.90;;;;;;5091874;28;20036;-68
2022/03/25 05:49:34;;;;;;;65.78;38.92;;;4.50;99.90;;;;;;5092319;28;20561;-68
2022/03/25 05:51:59;;;;;;;72.47;40.22;;;4.60;99.90;;;;;;5092193;28;20048;-67
2022/03/25 05:54:25;;;;;;;68.10;39.20;;;4.40;99.90;;;;;;5092416;28;20416;-69
2022/03/25 05:56:50;;;;;;;73.20;41.85;;;4.50;99.90;;;;;;5091708;28;20127;-69
2022/03/25 05:59:16;;;;;;;81.55;43.05;;;4.40;99.90;;;;;;5092241;28;20036;-69
2022/03/25 06:01:42;;;;;;;82.70;44.08;;;4.30;99.90;;;;;;5092137;28;20062;-68
2022/03/25 06:04:07;;;;;;;87.93;48.55;;;4.20;99.90;;;;;;5092081;28;20378;-68
2022/03/25 06:06:33;;;;;;;93.88;50.42;;;4.20;99.90;;;;;;5091622;28;20039;-69
2022/03/25 06:08:58;;;;;;;94.43;48.88;;;4.30;99.90;;;;;;5092203;28;20039;-68
2022/03/25 06:11:24;;;;;;;97.25;49.05;;;4.30;99.90;;;;;;5092226;28;20036;-68
2022/03/25 06:13:50;;;;;;;96.40;50.35;;;4.30;99.90;;;;;;5091926;28;20044;-69
2022/03/25 06:16:17;;;;;;;100.22;52.42;;;4.40;99.90;;;;;;5091376;28;20072;-69
2022/03/25 06:18:42;;;;;;;104.28;51.83;;;4.50;99.90;;;;;;5091989;28;20086;-69
2022/03/25 06:21:08;;;;;;;113.00;53.75;;;4.50;99.90;;;;;;5091952;28;20044;-68
2022/03/25 06:23:34;;;;;;;111.00;56.20;;;4.50;99.90;;;;;;5092190;28;20419;-69
2022/03/25 06:25:59;;;;;;;112.97;55.67;;;4.60;99.90;;;;;;5091712;28;20115;-69
2022/03/25 06:28:25;;;;;;;113.43;58.03;;;4.80;99.90;;;;;;5091523;28;20416;-69
2022/03/25 06:30:51;;;;;;;109.68;56.90;;;4.90;99.90;;;;;;5091703;28;20052;-69
2022/03/25 06:33:16;;;;;;;110.30;55.03;;;5.00;99.90;;;;;;5091720;28;20048;-69
2022/03/25 06:35:44;;;;;;;104.28;55.35;;;5.20;99.90;;;;;;5090046;28;20482;-69
2022/03/25 06:38:10;;;;;;;103.38;53.45;;;5.40;99.90;;;;;;5091721;28;20047;-69
2022/03/25 06:40:35;;;;;;;112.95;56.67;;;5.60;99.90;;;;;;5093468;28;20040;-69
2022/03/25 06:43:01;;;;;;;105.07;54.53;;;5.80;99.90;;;;;;5095760;28;20513;-69
2022/03/25 06:45:27;;;;;;;112.43;56.85;;;6.00;99.90;;;;;;5095478;28;20082;-68
2022/03/25 06:47:53;;;;;;;103.05;54.30;;;6.10;99.90;;;;;;5095586;28;20137;-69
2022/03/25 06:50:21;;;;;;;103.38;53.00;;;6.40;99.90;;;;;;5095498;28;20501;-69
2022/03/25 06:52:47;;;;;;;98.97;50.90;;;6.60;99.90;;;;;;5095518;28;20513;-69
2022/03/25 06:55:14;;;;;;;87.93;48.40;;;6.70;99.90;;;;;;5095619;28;20046;-69
2022/03/25 06:57:40;;;;;;;87.72;50.17;;;6.90;99.90;;;;;;5095416;28;20062;-69
2022/03/25 07:00:12;;;;;;;84.75;47.13;;;7.10;99.90;;;;;;5095518;28;20536;-69
2022/03/25 07:02:39;;;;;;;81.38;47.42;;;7.20;99.90;;;;;;5095353;28;20042;-68
2022/03/25 07:05:05;;;;;;;85.90;48.22;;;7.30;99.90;;;;;;5095317;28;20047;-69
2022/03/25 07:07:32;;;;;;;78.53;45.53;;;7.40;99.90;;;;;;5095093;28;20043;-69
2022/03/25 07:09:58;;;;;;;76.22;43.55;;;7.50;99.90;;;;;;5095378;28;20457;-69
2022/03/25 07:12:24;;;;;;;79.50;43.70;;;7.70;99.90;;;;;;5095104;28;20397;-69
2022/03/25 07:14:49;;;;;;;80.28;44.03;;;7.90;99.90;;;;;;5095157;28;20040;-69
2022/03/25 07:17:15;;;;;;;74.13;42.05;;;8.00;99.90;;;;;;5094683;28;20083;-69
2022/03/25 07:19:40;;;;;;;69.50;41.83;;;8.10;99.90;;;;;;5095009;28;20185;-69
2022/03/25 07:22:06;;;;;;;66.20;38.42;;;8.20;99.90;;;;;;5095127;28;20024;-69
2022/03/25 07:24:31;;;;;;;64.45;39.60;;;8.40;99.90;;;;;;5095179;28;20111;-69
2022/03/25 07:26:57;;;;;;;66.72;40.22;;;8.60;99.90;;;;;;5094705;28;20047;-69
2022/03/25 07:29:23;;;;;;;63.70;38.45;;;8.70;99.90;;;;;;5094943;28;20036;-69
2022/03/25 07:31:48;;;;;;;61.10;37.92;;;8.80;99.90;;;;;;5094705;28;20068;-69
2022/03/25 07:34:14;;;;;;;61.35;37.28;;;9.00;99.90;;;;;;5094654;28;20040;-69
2022/03/25 07:36:40;;;;;;;67.22;37.83;;;9.10;99.90;;;;;;5094461;28;20044;-69
2022/03/25 07:39:06;;;;;;;60.30;36.88;;;9.40;99.90;;;;;;5094756;28;20123;-69
2022/03/25 07:41:31;;;;;;;55.42;34.78;;;9.60;99.90;;;;;;5094738;28;20173;-69
2022/03/25 07:43:57;;;;;;;55.58;34.35;;;9.80;99.90;;;;;;5094567;28;20036;-69
2022/03/25 07:46:27;;;;;;;56.05;33.47;;;10.00;99.90;;;;;;5094131;28;20039;-69
2022/03/25 07:48:52;;;;;;;51.50;32.63;;;10.00;99.90;;;;;;5093230;28;20127;-69
2022/03/25 07:51:19;;;;;;;49.13;32.13;;;10.10;99.90;;;;;;5094257;28;20075;-69
2022/03/25 07:53:45;;;;;;;50.95;30.17;;;10.30;99.90;;;;;;5093997;28;20079;-69
2022/03/25 07:56:11;;;;;;;50.33;32.58;;;10.40;99.90;;;;;;5093979;28;20063;-70
2022/03/25 07:58:37;;;;;;;50.50;31.80;;;10.30;99.90;;;;;;5094382;28;20044;-69
2022/03/25 08:01:04;;;;;;;55.90;30.70;;;10.60;99.90;;;;;;5094173;28;20114;-69
2022/03/25 08:03:30;;;;;;;48.47;30.23;;;10.60;99.90;;;;;;5094614;28;20040;-69
2022/03/25 08:05:56;;;;;;;49.88;29.33;;;10.90;99.90;;;;;;5094018;28;20055;-69
2022/03/25 08:08:22;;;;;;;43.15;28.52;;;11.00;99.90;;;;;;5094057;28;20093;-69
2022/03/25 08:10:49;;;;;;;42.72;27.67;;;11.20;99.90;;;;;;5094158;28;20043;-69
2022/03/25 08:13:16;;;;;;;42.85;27.63;;;11.20;98.80;;;;;;5092979;28;20123;-69
2022/03/25 08:15:41;;;;;;;46.90;28.15;;;11.40;98.50;;;;;;5088908;28;20486;-67
2022/03/25 08:18:13;;;;;;;44.58;27.25;;;11.50;97.50;;;;;;5083762;28;20061;-67
2022/03/25 08:20:43;;;;;;;37.90;25.08;;;11.60;96.40;;;;;;5094104;28;20043;-67
2022/03/25 08:27:48;;;;;;;39.72;26.52;;;11.80;96.00;;;;;;5092545;28;20114;-67
2022/03/25 08:28:44;;;;;;;36.38;23.90;;;11.90;93.40;;;;;;5093720;28;20062;-67
2022/03/25 08:31:09;;;;;;;45.65;25.65;;;12.00;92.00;;;;;;5075419;28;20485;-67
2022/03/25 08:33:35;;;;;;;38.75;24.75;;;12.20;91.60;;;;;;5092724;28;20052;-67
2022/03/25 08:36:00;;;;;;;39.17;25.60;;;12.40;90.90;;;;;;5093415;28;20031;-67
2022/03/25 08:38:26;;;;;;;42.58;28.05;;;12.50;90.40;;;;;;5070140;28;20051;-67
2022/03/25 08:40:51;;;;;;;37.10;25.05;;;12.60;88.80;;;;;;5083145;28;20025;-67
2022/03/25 08:43:17;;;;;;;40.53;25.77;;;12.70;85.10;;;;;;5072219;28;20048;-67
2022/03/25 08:45:43;;;;;;;34.45;22.90;;;12.80;82.20;;;;;;5072856;28;20045;-67
2022/03/25 08:48:08;;;;;;;36.35;24.17;;;12.80;82.50;;;;;;5073135;28;20425;-67
2022/03/25 08:50:34;;;;;;;43.08;25.80;;;13.00;82.80;;;;;;5073167;28;20041;-67
2022/03/25 08:52:59;;;;;;;35.67;23.08;;;12.80;81.90;;;;;;5073040;28;20477;-67
2022/03/25 08:55:25;;;;;;;39.22;23.10;;;12.90;81.60;;;;;;5072490;28;20402;-67
2022/03/25 08:57:51;;;;;;;36.63;23.92;;;12.70;80.70;;;;;;5071773;28;20037;-67
2022/03/25 09:00:18;;;;;;;33.10;22.83;;;12.90;79.50;;;;;;5071488;28;20489;-66
2022/03/25 09:02:44;;;;;;;37.63;23.83;;;12.70;79.20;;;;;;5072889;28;20044;-67
2022/03/25 09:05:11;;;;;;;35.70;22.70;;;12.70;79.30;;;;;;5071551;28;20044;-67
2022/03/25 09:07:38;;;;;;;35.08;22.95;;;12.80;79.50;;;;;;5071118;28;20044;-67
2022/03/25 09:10:05;;;;;;;34.42;22.90;;;12.90;77.70;;;;;;5072205;28;20510;-67
2022/03/25 09:12:31;;;;;;;30.20;20.85;;;12.90;76.30;;;;;;5072313;28;20032;-67
2022/03/25 09:14:56;;;;;;;33.63;21.33;;;13.00;74.60;;;;;;5072585;28;20029;-67
2022/03/25 09:17:22;;;;;;;32.25;22.58;;;13.10;75.40;;;;;;5070893;28;20102;-67
2022/03/25 09:19:47;;;;;;;36.75;21.63;;;13.10;74.80;;;;;;5071091;28;20043;-66
2022/03/25 09:22:13;;;;;;;35.75;21.83;;;13.00;74.30;;;;;;5054288;28;20409;-67
2022/03/25 09:24:38;;;;;;;36.88;23.27;;;13.10;71.90;;;;;;5072132;28;20114;-67
2022/03/25 09:27:04;;;;;;;34.47;22.23;;;13.10;72.50;;;;;;5070576;28;20067;-66
2022/03/25 09:29:30;;;;;;;35.22;22.52;;;13.20;71.00;;;;;;5074600;28;20517;-67
2022/03/25 09:31:56;;;;;;;32.25;20.73;;;13.20;70.00;;;;;;5077622;28;20577;-67
2022/03/25 09:37:06;;;;;;;36.33;21.27;;;13.40;69.90;;;;;;5071091;28;20505;-67
2022/03/25 09:39:31;;;;;;;36.00;23.23;;;13.40;69.60;;;;;;5071948;28;20067;-67
2022/03/25 09:41:59;;;;;;;34.78;21.58;;;13.50;67.50;;;;;;5070844;28;20033;-67
2022/03/25 09:44:24;;;;;;;33.35;21.40;;;13.50;66.10;;;;;;5072101;28;20036;-67
2022/03/25 09:46:50;;;;;;;31.77;20.17;;;13.50;65.60;;;;;;5071524;28;20051;-67
2022/03/25 09:49:17;;;;;;;27.98;17.27;;;13.50;64.80;;;;;;5071734;28;20044;-67
2022/03/25 09:51:44;;;;;;;30.35;17.10;;;13.40;62.30;;;;;;5070699;28;20045;-66
2022/03/25 09:54:13;;;;;;;27.70;17.42;;;13.60;60.30;;;;;;5070785;28;20039;-66
2022/03/25 09:56:39;;;;;;;28.40;17.88;;;13.60;58.40;;;;;;5071195;28;20052;-67
2022/03/25 09:59:06;;;;;;;31.77;18.38;;;13.60;57.20;;;;;;5070751;28;20067;-68
2022/03/25 10:01:32;;;;;;;43.13;20.75;;;13.70;57.80;;;;;;5054085;28;20512;-68
2022/03/25 10:03:58;;;;;;;30.08;17.60;;;13.70;58.00;;;;;;5071678;28;20123;-68
2022/03/25 10:06:24;;;;;;;28.23;16.58;;;13.80;57.60;;;;;;5071334;28;20044;-68
2022/03/25 10:09:02;;;;;;;28.75;16.80;;;13.90;56.00;;;;;;5070499;28;20090;-68
2022/03/25 10:11:32;;;;;;;28.25;17.50;;;13.80;54.70;;;;;;5071809;28;20131;-68
2022/03/25 10:14:23;;;;;;;29.50;17.30;;;13.80;53.60;;;;;;5070274;28;20033;-68
2022/03/25 10:16:53;;;;;;;24.92;15.07;;;13.80;52.60;;;;;;5094436;22;20229;-71
2022/03/25 10:19:19;;;;;;;23.50;15.57;;;13.70;51.00;;;;;;5091653;28;20054;-71
2022/03/25 10:21:59;;;;;;;28.52;14.43;;;13.80;52.40;;;;;;5073657;28;20075;-71
2022/03/25 10:24:39;;;;;;;28.85;16.70;;;13.80;50.50;;;;;;5073682;28;20036;-72
2022/03/25 10:27:07;;;;;;;25.02;16.13;;;13.80;51.60;;;;;;5072877;28;20047;-72
2022/03/25 10:29:34;;;;;;;34.83;16.83;;;13.80;52.00;;;;;;5055473;28;20117;-72
2022/03/25 10:32:10;;;;;;;28.13;15.80;;;13.90;52.50;;;;;;5073634;28;20498;-72
2022/03/25 10:34:37;;;;;;;25.02;15.02;;;13.90;50.60;;;;;;5072948;28;20051;-72
2022/03/25 10:37:11;;;;;;;30.65;16.40;;;14.00;51.00;;;;;;5060945;28;20044;-72
2022/03/25 10:39:38;;;;;;;24.75;15.05;;;14.00;50.50;;;;;;5045612;28;20043;-72
2022/03/25 10:42:06;;;;;;;28.13;15.23;;;14.00;50.30;;;;;;5064445;28;20551;-73
2022/03/25 10:44:41;;;;;;;30.83;15.93;;;14.10;50.80;;;;;;5073534;28;20210;-72
2022/03/25 10:47:16;;;;;;;29.80;16.20;;;14.10;50.30;;;;;;5073177;28;20036;-72
2022/03/25 10:49:43;;;;;;;31.63;17.63;;;14.20;50.30;;;;;;5070466;28;20086;-72
2022/03/25 10:52:26;;;;;;;31.48;16.90;;;14.20;50.70;;;;;;5053455;28;20048;-72
2022/03/25 10:55:22;;;;;;;29.20;17.70;;;14.50;50.70;;;;;;5053549;28;20628;-72
2022/03/25 10:57:52;;;;;;;32.15;16.77;;;14.50;49.90;;;;;;5053140;28;20271;-72
2022/03/25 11:00:18;;;;;;;35.95;18.25;;;14.60;51.00;;;;;;5053571;28;20041;-72
2022/03/25 11:02:45;;;;;;;29.33;16.50;;;14.60;50.60;;;;;;5055796;28;20042;-72
2022/03/25 11:05:12;;;;;;;29.50;16.17;;;14.70;49.60;;;;;;5063553;28;20055;-72
2022/03/25 11:07:42;;;;;;;35.35;19.20;;;14.80;50.30;;;;;;5061682;28;20572;-72
2022/03/25 11:10:09;;;;;;;31.08;18.08;;;14.60;50.30;;;;;;5045198;28;20036;-72
2022/03/25 11:12:34;;;;;;;30.33;17.63;;;14.70;50.90;;;;;;5046838;28;20035;-72
2022/03/25 11:15:01;;;;;;;30.52;17.58;;;14.60;50.40;;;;;;5062439;28;20428;-72
2022/03/25 11:17:27;;;;;;;32.22;17.08;;;14.50;50.40;;;;;;5058815;28;20086;-72
2022/03/25 11:19:56;;;;;;;34.22;18.77;;;14.40;51.10;;;;;;5053070;28;20033;-72
2022/03/25 11:22:23;;;;;;;32.35;17.85;;;14.50;51.50;;;;;;5036317;28;20032;-72
2022/03/25 11:24:53;;;;;;;30.88;17.90;;;14.60;51.40;;;;;;5053150;28;20049;-72
2022/03/25 11:27:25;;;;;;;35.67;18.90;;;14.60;51.00;;;;;;5071409;28;20040;-72
2022/03/25 11:29:53;;;;;;;27.48;17.77;;;14.60;50.60;;;;;;5056726;28;20548;-73
2022/03/25 11:32:19;;;;;;;32.65;18.42;;;14.60;50.40;;;;;;5056516;28;20044;-72
2022/03/25 11:34:54;;;;;;;29.67;17.65;;;14.50;49.70;;;;;;5074856;28;20049;-72
2022/03/25 11:37:21;;;;;;;24.27;15.30;;;14.60;49.10;;;;;;5056153;28;20118;-72
2022/03/25 11:39:48;;;;;;;31.85;17.90;;;14.70;47.60;;;;;;5056225;28;20044;-73
2022/03/25 11:42:40;;;;;;;33.38;17.45;;;14.80;47.40;;;;;;5040805;28;20040;-72
2022/03/25 11:45:21;;;;;;;29.00;17.75;;;14.80;47.70;;;;;;5064554;28;20052;-72
2022/03/25 11:48:04;;;;;;;27.83;16.73;;;14.70;47.90;;;;;;5062207;28;20029;-72
2022/03/25 11:50:34;;;;;;;28.10;17.58;;;14.80;47.80;;;;;;5065633;28;20086;-72
2022/03/25 11:53:23;;;;;;;28.52;17.52;;;14.60;46.80;;;;;;5082843;28;20129;-72
2022/03/25 11:56:00;;;;;;;39.03;20.40;;;14.80;46.80;;;;;;5065833;28;20040;-72
2022/03/25 11:58:28;;;;;;;34.33;19.90;;;14.80;47.60;;;;;;5091409;28;20072;-72
2022/03/25 12:01:00;;;;;;;33.17;19.55;;;14.90;48.30;;;;;;5094362;28;20119;-71
2022/03/25 12:03:47;;;;;;;36.88;20.58;;;14.90;47.60;;;;;;5075949;28;20037;-71
2022/03/25 12:06:13;;;;;;;34.20;19.73;;;14.80;46.20;;;;;;5075850;28;20102;-71
2022/03/25 12:09:06;;;;;;;31.30;17.70;;;14.80;47.10;;;;;;5075787;28;20075;-71
2022/03/25 12:11:56;;;;;;;31.85;19.23;;;14.90;45.70;;;;;;5056245;28;20032;-71
2022/03/25 12:14:31;;;;;;;33.35;18.90;;;15.00;46.00;;;;;;5053706;28;20127;-71
2022/03/25 12:17:07;;;;;;;36.03;18.70;;;15.10;45.60;;;;;;5075354;28;20512;-72
2022/03/25 12:19:38;;;;;;;27.33;16.02;;;15.10;44.60;;;;;;5075736;28;20071;-71
2022/03/25 12:22:19;;;;;;;27.50;16.73;;;15.00;44.10;;;;;;5075620;28;20493;-71
2022/03/25 12:24:53;;;;;;;24.60;15.48;;;15.10;43.00;;;;;;5075887;28;20048;-71
2022/03/25 12:27:20;;;;;;;29.90;16.30;;;15.20;42.70;;;;;;5058561;28;20044;-71
2022/03/25 12:29:54;;;;;;;28.27;14.35;;;15.10;42.00;;;;;;5093506;28;20169;-71
2022/03/25 12:32:22;;;;;;;31.15;16.70;;;15.10;41.40;;;;;;5058985;28;20676;-71
2022/03/25 12:34:57;;;;;;;28.92;15.18;;;15.10;41.80;;;;;;5093433;28;20107;-71
2022/03/25 12:37:28;;;;;;;30.60;15.35;;;15.10;42.50;;;;;;5074419;28;20092;-72